createdAt,value
2018-09-04T00:00:52.097Z,19.15
2018-09-04T00:02:00.752Z,19.15
2018-09-04T00:03:09.651Z,19.16
2018-09-04T00:04:18.567Z,19.17
2018-09-04T00:05:27.474Z,19.17
2018-09-04T00:06:36.129Z,19.12
2018-09-04T00:07:44.767Z,19.15
2018-09-04T00:08:53.416Z,19.09
2018-09-04T00:10:02.061Z,19.19
2018-09-04T00:11:10.718Z,19.19
2018-09-04T00:12:19.363Z,19.2
2018-09-04T00:13:28.007Z,19.17
2018-09-04T00:14:36.653Z,19.15
2018-09-04T00:15:45.302Z,19.15
2018-09-04T00:16:53.955Z,19.17
2018-09-04T00:18:02.598Z,19.2
2018-09-04T00:19:11.249Z,19.2
2018-09-04T00:20:19.891Z,19.09
2018-09-04T00:21:28.545Z,19.12
2018-09-04T00:22:37.187Z,19.11
2018-09-04T00:23:45.844Z,19.09
2018-09-04T00:24:54.745Z,19.08
2018-09-04T00:26:03.399Z,19.12
2018-09-04T00:27:12.044Z,19
2018-09-04T00:28:20.696Z,18.98
2018-09-04T00:29:29.609Z,19.01
2018-09-04T00:30:38.262Z,19.05
2018-09-04T00:31:46.913Z,19.04
2018-09-04T00:32:55.556Z,19.04
2018-09-04T00:34:04.204Z,19.04
2018-09-04T00:35:13.122Z,18.96
2018-09-04T00:36:21.763Z,18.98
2018-09-04T00:37:30.685Z,18.98
2018-09-04T00:38:39.319Z,19.04
2018-09-04T00:39:48.239Z,19
2018-09-04T00:40:57.151Z,18.92
2018-09-04T00:42:06.332Z,18.86
2018-09-04T00:43:15.233Z,18.97
2018-09-04T00:44:23.894Z,18.91
2018-09-04T00:45:32.539Z,18.94
2018-09-04T00:46:41.188Z,18.94
2018-09-04T00:47:49.828Z,18.91
2018-09-04T00:48:58.477Z,18.91
2018-09-04T00:50:07.398Z,18.88
2018-09-04T00:51:16.055Z,18.82
2018-09-04T00:52:24.707Z,18.92
2018-09-04T00:53:33.605Z,18.88
2018-09-04T00:54:42.258Z,18.88
2018-09-04T00:55:50.898Z,18.85
2018-09-04T00:56:59.555Z,18.89
2018-09-04T00:58:08.196Z,18.85
2018-09-04T00:59:17.109Z,18.85
2018-09-04T01:00:25.753Z,18.85
2018-09-04T01:01:34.409Z,18.79
2018-09-04T01:02:43.045Z,18.81
2018-09-04T01:03:51.961Z,18.82
2018-09-04T01:05:00.604Z,18.78
2018-09-04T01:06:09.266Z,18.81
2018-09-04T01:07:17.913Z,18.83
2018-09-04T01:08:26.818Z,18.88
2018-09-04T01:09:35.464Z,18.83
2018-09-04T01:10:44.109Z,18.83
2018-09-04T01:11:52.763Z,18.76
2018-09-04T01:13:01.411Z,18.83
2018-09-04T01:14:10.064Z,18.71
2018-09-04T01:15:18.703Z,18.79
2018-09-04T01:16:27.359Z,18.74
2018-09-04T01:17:36.006Z,18.79
2018-09-04T01:18:44.653Z,18.76
2018-09-04T01:19:53.290Z,18.71
2018-09-04T01:21:01.947Z,18.73
2018-09-04T01:22:10.595Z,18.76
2018-09-04T01:23:19.245Z,18.76
2018-09-04T01:24:27.883Z,18.76
2018-09-04T01:25:36.799Z,18.78
2018-09-04T01:26:45.456Z,18.76
2018-09-04T01:27:54.100Z,18.74
2018-09-04T01:29:02.741Z,18.74
2018-09-04T01:30:11.386Z,18.7
2018-09-04T01:31:20.034Z,18.74
2018-09-04T01:32:28.682Z,18.7
2018-09-04T01:33:37.333Z,18.67
2018-09-04T01:34:45.975Z,18.67
2018-09-04T01:35:54.624Z,18.68
2018-09-04T01:37:03.270Z,18.63
2018-09-04T01:38:11.924Z,18.78
2018-09-04T01:39:20.562Z,18.61
2018-09-04T01:40:29.213Z,18.66
2018-09-04T01:41:38.116Z,18.74
2018-09-04T01:42:46.769Z,18.67
2018-09-04T01:43:55.420Z,18.67
2018-09-04T01:45:04.069Z,18.6
2018-09-04T01:46:12.711Z,18.64
2018-09-04T01:47:21.355Z,18.64
2018-09-04T01:48:30.014Z,18.64
2018-09-04T01:49:38.919Z,18.7
2018-09-04T01:50:47.568Z,18.64
2018-09-04T01:51:56.210Z,18.67
2018-09-04T01:53:04.865Z,18.64
2018-09-04T01:54:13.515Z,18.66
2018-09-04T01:55:22.161Z,18.67
2018-09-04T01:56:30.804Z,18.7
2018-09-04T01:57:39.717Z,18.7
2018-09-04T01:58:48.363Z,18.73
2018-09-04T01:59:57.278Z,18.7
2018-09-04T02:01:06.185Z,18.7
2018-09-04T02:02:14.841Z,18.71
2018-09-04T02:03:23.489Z,18.64
2018-09-04T02:04:32.590Z,18.79
2018-09-04T02:05:41.238Z,18.73
2018-09-04T02:06:49.880Z,18.64
2018-09-04T02:07:58.525Z,18.64
2018-09-04T02:09:07.172Z,18.67
2018-09-04T02:10:15.824Z,18.7
2018-09-04T02:11:24.465Z,18.67
2018-09-04T02:12:33.110Z,18.71
2018-09-04T02:13:41.767Z,18.66
2018-09-04T02:14:50.414Z,18.63
2018-09-04T02:15:59.055Z,18.68
2018-09-04T02:17:07.704Z,18.63
2018-09-04T02:18:16.348Z,18.63
2018-09-04T02:19:25.259Z,18.68
2018-09-04T02:20:33.904Z,18.67
2018-09-04T02:21:42.548Z,18.67
2018-09-04T02:22:51.195Z,18.58
2018-09-04T02:23:59.841Z,18.58
2018-09-04T02:25:08.493Z,18.55
2018-09-04T02:26:17.140Z,18.51
2018-09-04T02:27:25.788Z,18.49
2018-09-04T02:28:34.431Z,18.58
2018-09-04T02:29:43.076Z,18.55
2018-09-04T02:30:51.731Z,18.52
2018-09-04T02:32:00.371Z,18.58
2018-09-04T02:33:09.107Z,18.53
2018-09-04T02:34:18.933Z,18.53
2018-09-04T02:35:27.583Z,18.48
2018-09-04T02:36:36.493Z,18.51
2018-09-04T02:37:45.417Z,18.49
2018-09-04T02:38:54.067Z,18.51
2018-09-04T02:40:02.705Z,18.48
2018-09-04T02:41:11.349Z,18.39
2018-09-04T02:42:20.269Z,18.34
2018-09-04T02:43:28.925Z,18.34
2018-09-04T02:44:37.569Z,18.24
2018-09-04T02:45:46.221Z,18.24
2018-09-04T02:46:54.859Z,18.24
2018-09-04T02:48:03.780Z,18.28
2018-09-04T02:49:12.688Z,18.11
2018-09-04T02:50:21.339Z,18.18
2018-09-04T02:51:29.981Z,18.16
2018-09-04T02:52:38.640Z,18.16
2018-09-04T02:53:47.282Z,18.09
2018-09-04T02:54:55.930Z,18.09
2018-09-04T02:56:04.567Z,18
2018-09-04T02:57:13.216Z,18.09
2018-09-04T02:58:21.868Z,18.08
2018-09-04T02:59:30.522Z,17.95
2018-09-04T03:00:39.169Z,18
2018-09-04T03:01:48.072Z,18.05
2018-09-04T03:02:56.722Z,17.93
2018-09-04T03:04:05.366Z,17.94
2018-09-04T03:05:14.025Z,17.94
2018-09-04T03:06:22.662Z,17.94
2018-09-04T03:07:31.311Z,17.82
2018-09-04T03:08:39.955Z,17.91
2018-09-04T03:09:48.878Z,17.8
2018-09-04T03:10:57.510Z,17.76
2018-09-04T03:12:06.173Z,17.79
2018-09-04T03:13:15.121Z,17.79
2018-09-04T03:14:23.731Z,17.8
2018-09-04T03:15:32.639Z,17.82
2018-09-04T03:16:41.542Z,17.79
2018-09-04T03:17:50.202Z,17.76
2018-09-04T03:18:59.105Z,17.76
2018-09-04T03:20:07.759Z,17.73
2018-09-04T03:21:16.403Z,17.72
2018-09-04T03:22:25.056Z,17.72
2018-09-04T03:23:33.692Z,17.69
2018-09-04T03:24:42.346Z,17.68
2018-09-04T03:25:50.991Z,17.72
2018-09-04T03:26:59.641Z,17.66
2018-09-04T03:28:08.561Z,17.59
2018-09-04T03:29:17.215Z,17.6
2018-09-04T03:30:25.860Z,17.56
2018-09-04T03:31:34.775Z,17.65
2018-09-04T03:32:43.422Z,17.6
2018-09-04T03:33:52.332Z,17.54
2018-09-04T03:35:00.981Z,17.57
2018-09-04T03:36:09.632Z,17.59
2018-09-04T03:37:18.285Z,17.6
2018-09-04T03:38:26.925Z,17.68
2018-09-04T03:39:35.569Z,17.63
2018-09-04T03:40:44.483Z,17.71
2018-09-04T03:41:53.134Z,17.68
2018-09-04T03:43:01.777Z,17.63
2018-09-04T03:44:10.478Z,17.72
2018-09-04T03:45:19.090Z,17.65
2018-09-04T03:46:27.741Z,17.72
2018-09-04T03:47:36.385Z,17.71
2018-09-04T03:48:45.030Z,17.71
2018-09-04T03:49:53.675Z,17.68
2018-09-04T03:51:02.589Z,17.66
2018-09-04T03:52:11.296Z,17.69
2018-09-04T03:53:19.881Z,17.65
2018-09-04T03:54:28.525Z,17.66
2018-09-04T03:55:37.169Z,17.68
2018-09-04T03:56:45.821Z,17.56
2018-09-04T03:57:54.467Z,17.54
2018-09-04T03:59:03.382Z,17.53
2018-09-04T04:00:12.024Z,17.6
2018-09-04T04:01:20.772Z,17.59
2018-09-04T04:02:29.743Z,17.63
2018-09-04T04:03:38.395Z,17.52
2018-09-04T04:04:47.306Z,17.65
2018-09-04T04:05:55.961Z,17.63
2018-09-04T04:07:04.604Z,17.63
2018-09-04T04:08:13.251Z,17.63
2018-09-04T04:09:21.895Z,17.63
2018-09-04T04:10:30.819Z,17.57
2018-09-04T04:11:39.464Z,17.54
2018-09-04T04:12:48.112Z,17.63
2018-09-04T04:13:56.765Z,17.57
2018-09-04T04:15:05.409Z,17.57
2018-09-04T04:16:14.056Z,17.54
2018-09-04T04:17:22.703Z,17.49
2018-09-04T04:18:31.350Z,17.53
2018-09-04T04:19:39.994Z,17.53
2018-09-04T04:20:48.640Z,17.52
2018-09-04T04:21:57.286Z,17.53
2018-09-04T04:23:05.937Z,17.53
2018-09-04T04:24:14.577Z,17.5
2018-09-04T04:25:23.224Z,17.53
2018-09-04T04:26:31.869Z,17.53
2018-09-04T04:27:40.511Z,17.53
2018-09-04T04:28:49.161Z,17.56
2018-09-04T04:29:57.807Z,17.63
2018-09-04T04:31:06.456Z,17.63
2018-09-04T04:32:15.107Z,17.56
2018-09-04T04:33:23.753Z,17.57
2018-09-04T04:34:32.670Z,17.47
2018-09-04T04:35:41.324Z,17.56
2018-09-04T04:36:50.253Z,17.49
2018-09-04T04:37:59.419Z,17.53
2018-09-04T04:39:08.067Z,17.53
2018-09-04T04:40:16.988Z,17.52
2018-09-04T04:41:25.632Z,17.52
2018-09-04T04:42:34.534Z,17.5
2018-09-04T04:43:43.189Z,17.52
2018-09-04T04:44:51.831Z,17.53
2018-09-04T04:46:00.487Z,17.49
2018-09-04T04:47:09.397Z,17.56
2018-09-04T04:48:18.112Z,17.53
2018-09-04T04:49:27.080Z,17.44
2018-09-04T04:50:35.993Z,17.53
2018-09-04T04:51:44.643Z,17.52
2018-09-04T04:52:53.289Z,17.46
2018-09-04T04:54:01.939Z,17.47
2018-09-04T04:55:10.844Z,17.47
2018-09-04T04:56:19.495Z,17.47
2018-09-04T04:57:28.140Z,17.39
2018-09-04T04:58:36.787Z,17.38
2018-09-04T04:59:45.437Z,17.44
2018-09-04T05:00:54.348Z,17.44
2018-09-04T05:02:02.992Z,17.49
2018-09-04T05:03:12.025Z,17.41
2018-09-04T05:04:20.673Z,17.52
2018-09-04T05:05:29.321Z,17.49
2018-09-04T05:06:38.233Z,17.56
2018-09-04T05:07:46.904Z,17.54
2018-09-04T05:08:55.613Z,17.41
2018-09-04T05:10:04.831Z,17.41
2018-09-04T05:11:13.649Z,17.39
2018-09-04T05:12:22.840Z,17.44
2018-09-04T05:13:32.001Z,17.52
2018-09-04T05:14:40.811Z,17.46
2018-09-04T05:15:49.462Z,17.42
2018-09-04T05:16:58.125Z,17.42
2018-09-04T05:18:06.767Z,17.49
2018-09-04T05:19:15.415Z,17.5
2018-09-04T05:20:24.064Z,17.49
2018-09-04T05:21:32.710Z,17.41
2018-09-04T05:22:41.424Z,17.5
2018-09-04T05:23:50.014Z,17.56
2018-09-04T05:24:58.660Z,17.59
2018-09-04T05:26:07.568Z,17.65
2018-09-04T05:27:16.479Z,17.63
2018-09-04T05:28:25.137Z,17.66
2018-09-04T05:29:33.891Z,17.68
2018-09-04T05:30:42.432Z,17.69
2018-09-04T05:31:51.072Z,17.82
2018-09-04T05:32:59.988Z,17.73
2018-09-04T05:34:08.633Z,17.76
2018-09-04T05:35:17.286Z,17.78
2018-09-04T05:36:25.931Z,17.8
2018-09-04T05:37:34.588Z,17.82
2018-09-04T05:38:43.498Z,17.91
2018-09-04T05:39:52.412Z,17.94
2018-09-04T05:41:01.053Z,18
2018-09-04T05:42:09.696Z,17.9
2018-09-04T05:43:18.348Z,17.95
2018-09-04T05:44:26.998Z,18.05
2018-09-04T05:45:35.646Z,18.08
2018-09-04T05:46:44.284Z,17.98
2018-09-04T05:47:52.934Z,18.11
2018-09-04T05:49:01.584Z,18.06
2018-09-04T05:50:10.499Z,18.18
2018-09-04T05:51:19.135Z,18.12
2018-09-04T05:52:28.052Z,18.18
2018-09-04T05:53:36.696Z,18.21
2018-09-04T05:54:45.354Z,18.3
2018-09-04T05:55:53.991Z,18.28
2018-09-04T05:57:02.644Z,18.27
2018-09-04T05:58:11.291Z,18.26
2018-09-04T05:59:19.944Z,18.34
2018-09-04T06:00:28.590Z,18.42
2018-09-04T06:01:37.497Z,18.45
2018-09-04T06:02:46.140Z,18.46
2018-09-04T06:03:54.785Z,18.52
2018-09-04T06:05:03.442Z,18.48
2018-09-04T06:06:12.088Z,18.51
2018-09-04T06:07:20.739Z,18.48
2018-09-04T06:08:29.376Z,18.53
2018-09-04T06:09:38.033Z,18.53
2018-09-04T06:10:46.686Z,18.53
2018-09-04T06:11:55.337Z,18.55
2018-09-04T06:13:03.977Z,18.52
2018-09-04T06:14:12.634Z,18.53
2018-09-04T06:15:21.281Z,18.51
2018-09-04T06:16:29.930Z,18.53
2018-09-04T06:17:38.569Z,18.55
2018-09-04T06:18:47.217Z,18.58
2018-09-04T06:19:55.908Z,18.63
2018-09-04T06:21:04.522Z,18.61
2018-09-04T06:22:13.172Z,18.64
2018-09-04T06:23:21.813Z,18.6
2018-09-04T06:24:30.461Z,18.64
2018-09-04T06:25:39.115Z,18.64
2018-09-04T06:26:47.765Z,18.68
2018-09-04T06:27:56.406Z,18.74
2018-09-04T06:29:05.329Z,18.7
2018-09-04T06:30:13.982Z,18.67
2018-09-04T06:31:22.637Z,18.67
2018-09-04T06:32:31.280Z,18.7
2018-09-04T06:33:39.932Z,18.78
2018-09-04T06:34:48.578Z,18.85
2018-09-04T06:35:57.233Z,18.86
2018-09-04T06:37:05.878Z,18.82
2018-09-04T06:38:14.527Z,18.82
2018-09-04T06:39:23.433Z,18.88
2018-09-04T06:40:32.078Z,18.91
2018-09-04T06:41:40.730Z,18.97
2018-09-04T06:42:49.664Z,19.04
2018-09-04T06:43:58.312Z,19
2018-09-04T06:45:06.955Z,19.07
2018-09-04T06:46:15.617Z,19.07
2018-09-04T06:47:24.523Z,19.09
2018-09-04T06:48:33.174Z,19.11
2018-09-04T06:49:41.816Z,19.2
2018-09-04T06:50:50.467Z,19.17
2018-09-04T06:51:59.113Z,19.09
2018-09-04T06:53:07.761Z,19.27
2018-09-04T06:54:16.405Z,19.26
2018-09-04T06:55:25.053Z,19.26
2018-09-04T06:56:33.700Z,19.34
2018-09-04T06:57:42.677Z,19.32
2018-09-04T06:58:51.539Z,19.3
2018-09-04T07:00:00.443Z,19.45
2018-09-04T07:01:09.090Z,19.45
2018-09-04T07:02:18.007Z,19.44
2018-09-04T07:03:26.667Z,19.45
2018-09-04T07:04:35.308Z,19.41
2018-09-04T07:05:44.224Z,19.42
2018-09-04T07:06:53.136Z,19.42
2018-09-04T07:08:01.790Z,19.41
2018-09-04T07:09:10.436Z,19.45
2018-09-04T07:10:19.083Z,19.52
2018-09-04T07:11:28.000Z,19.56
2018-09-04T07:12:36.654Z,19.39
2018-09-04T07:13:45.302Z,19.49
2018-09-04T07:14:53.949Z,19.52
2018-09-04T07:16:02.598Z,19.53
2018-09-04T07:17:11.381Z,19.56
2018-09-04T07:18:19.893Z,19.6
2018-09-04T07:19:28.801Z,19.63
2018-09-04T07:20:37.715Z,19.66
2018-09-04T07:21:46.359Z,19.71
2018-09-04T07:22:55.015Z,19.77
2018-09-04T07:24:03.706Z,19.79
2018-09-04T07:25:12.310Z,19.82
2018-09-04T07:26:20.957Z,19.81
2018-09-04T07:27:29.607Z,19.93
2018-09-04T07:28:38.254Z,19.93
2018-09-04T07:29:46.908Z,19.96
2018-09-04T07:30:55.556Z,20.02
2018-09-04T07:32:04.470Z,19.96
2018-09-04T07:33:13.123Z,20.12
2018-09-04T07:34:21.777Z,20.11
2018-09-04T07:35:30.693Z,20.21
2018-09-04T07:36:39.327Z,20.14
2018-09-04T07:37:47.980Z,20.19
2018-09-04T07:38:56.626Z,20.22
2018-09-04T07:40:05.542Z,20.26
2018-09-04T07:41:14.442Z,20.17
2018-09-04T07:42:23.099Z,20.32
2018-09-04T07:43:31.740Z,20.4
2018-09-04T07:44:40.398Z,20.42
2018-09-04T07:45:49.308Z,20.34
2018-09-04T07:46:57.960Z,20.49
2018-09-04T07:48:06.606Z,20.52
2018-09-04T07:49:15.269Z,20.46
2018-09-04T07:50:24.177Z,20.53
2018-09-04T07:51:32.822Z,20.56
2018-09-04T07:52:41.468Z,20.6
2018-09-04T07:53:50.298Z,20.6
2018-09-04T07:54:58.775Z,20.64
2018-09-04T07:56:07.422Z,20.7
2018-09-04T07:57:16.078Z,20.82
2018-09-04T07:58:24.983Z,20.8
2018-09-04T07:59:33.640Z,20.92
2018-09-04T08:00:42.809Z,20.92
2018-09-04T08:01:51.462Z,20.9
2018-09-04T08:03:00.114Z,21.03
2018-09-04T08:04:09.293Z,21.08
2018-09-04T08:05:17.941Z,21.15
2018-09-04T08:06:26.591Z,21.15
2018-09-04T08:07:35.231Z,21.15
2018-09-04T08:08:43.911Z,21.25
2018-09-04T08:09:52.564Z,21.26
2018-09-04T08:11:01.216Z,21.25
2018-09-04T08:12:09.870Z,21.33
2018-09-04T08:13:18.512Z,21.32
2018-09-04T08:14:27.168Z,21.4
2018-09-04T08:15:35.811Z,21.37
2018-09-04T08:16:44.471Z,21.4
2018-09-04T08:17:53.373Z,21.45
2018-09-04T08:19:02.291Z,21.54
2018-09-04T08:20:11.222Z,21.54
2018-09-04T08:21:19.858Z,21.59
2018-09-04T08:22:28.517Z,21.58
2018-09-04T08:23:37.170Z,21.53
2018-09-04T08:24:45.820Z,21.54
2018-09-04T08:25:54.462Z,21.63
2018-09-04T08:27:03.114Z,21.72
2018-09-04T08:28:12.047Z,21.72
2018-09-04T08:29:20.703Z,21.84
2018-09-04T08:30:29.354Z,21.88
2018-09-04T08:31:37.996Z,21.84
2018-09-04T08:32:46.685Z,21.88
2018-09-04T08:33:55.300Z,22.04
2018-09-04T08:35:03.960Z,22.15
2018-09-04T08:36:12.608Z,22.18
2018-09-04T08:37:21.261Z,22.12
2018-09-04T08:38:29.911Z,22.16
2018-09-04T08:39:38.572Z,22.19
2018-09-04T08:40:47.217Z,22.26
2018-09-04T08:41:56.129Z,22.28
2018-09-04T08:43:05.041Z,22.3
2018-09-04T08:44:13.960Z,22.19
2018-09-04T08:45:22.607Z,22.23
2018-09-04T08:46:31.251Z,22.26
2018-09-04T08:47:39.899Z,22.25
2018-09-04T08:48:48.809Z,22.31
2018-09-04T08:49:57.467Z,22.31
2018-09-04T08:51:06.114Z,22.46
2018-09-04T08:52:14.773Z,22.51
2018-09-04T08:53:23.462Z,22.58
2018-09-04T08:54:32.074Z,22.55
2018-09-04T08:55:40.718Z,22.63
2018-09-04T08:56:49.373Z,22.73
2018-09-04T08:57:58.277Z,22.73
2018-09-04T08:59:06.991Z,22.78
2018-09-04T09:00:15.847Z,22.93
2018-09-04T09:01:24.501Z,22.84
2018-09-04T09:02:33.141Z,22.89
2018-09-04T09:03:41.857Z,22.89
2018-09-04T09:04:51.082Z,22.92
2018-09-04T09:05:59.738Z,22.93
2018-09-04T09:07:08.388Z,22.96
2018-09-04T09:08:17.029Z,23.04
2018-09-04T09:09:25.685Z,23.13
2018-09-04T09:10:34.330Z,23.11
2018-09-04T09:11:42.990Z,23.13
2018-09-04T09:12:51.631Z,23.25
2018-09-04T09:14:00.287Z,23.29
2018-09-04T09:15:09.195Z,23.23
2018-09-04T09:16:17.855Z,23.36
2018-09-04T09:17:26.502Z,23.42
2018-09-04T09:18:35.433Z,23.48
2018-09-04T09:19:44.083Z,23.56
2018-09-04T09:20:52.737Z,23.48
2018-09-04T09:22:01.384Z,23.49
2018-09-04T09:23:10.299Z,23.54
2018-09-04T09:24:18.943Z,23.52
2018-09-04T09:25:27.593Z,23.58
2018-09-04T09:26:36.252Z,23.64
2018-09-04T09:27:44.904Z,23.69
2018-09-04T09:28:53.554Z,23.84
2018-09-04T09:30:02.203Z,23.85
2018-09-04T09:31:10.857Z,23.86
2018-09-04T09:32:19.514Z,23.91
2018-09-04T09:33:28.163Z,23.96
2018-09-04T09:34:36.814Z,24.03
2018-09-04T09:35:45.474Z,24.01
2018-09-04T09:36:54.426Z,24.07
2018-09-04T09:38:03.037Z,24.07
2018-09-04T09:39:11.687Z,24.07
2018-09-04T09:40:20.345Z,24.07
2018-09-04T09:41:29.263Z,24.07
2018-09-04T09:42:37.921Z,24.11
2018-09-04T09:43:46.589Z,24.07
2018-09-04T09:44:55.506Z,24.01
2018-09-04T09:46:04.186Z,24
2018-09-04T09:47:13.099Z,23.88
2018-09-04T09:48:21.785Z,23.99
2018-09-04T09:49:30.443Z,23.99
2018-09-04T09:50:39.408Z,23.89
2018-09-04T09:51:48.386Z,23.76
2018-09-04T09:52:57.078Z,23.73
2018-09-04T09:54:05.732Z,23.67
2018-09-04T09:55:14.345Z,23.52
2018-09-04T09:56:23.075Z,23.59
2018-09-04T09:57:31.742Z,23.48
2018-09-04T09:58:40.299Z,23.44
2018-09-04T09:59:48.998Z,23.32
2018-09-04T10:00:57.665Z,23.23
2018-09-04T10:02:06.255Z,23.33
2018-09-04T10:03:14.910Z,23.23
2018-09-04T10:04:23.568Z,23.29
2018-09-04T10:05:32.220Z,23.26
2018-09-04T10:06:41.128Z,23.17
2018-09-04T10:07:49.897Z,23.2
2018-09-04T10:08:58.436Z,23.11
2018-09-04T10:10:07.121Z,23.07
2018-09-04T10:11:15.777Z,23.07
2018-09-04T10:12:24.393Z,23.06
2018-09-04T10:13:33.314Z,23.1
2018-09-04T10:14:41.968Z,23.07
2018-09-04T10:15:50.613Z,23.07
2018-09-04T10:16:59.266Z,23.18
2018-09-04T10:18:07.919Z,23.21
2018-09-04T10:19:16.571Z,23.25
2018-09-04T10:20:25.491Z,23.28
2018-09-04T10:21:34.141Z,23.37
2018-09-04T10:22:43.062Z,23.29
2018-09-04T10:23:51.713Z,23.4
2018-09-04T10:25:00.373Z,23.39
2018-09-04T10:26:09.016Z,23.47
2018-09-04T10:27:17.673Z,23.51
2018-09-04T10:28:26.325Z,23.55
2018-09-04T10:29:34.983Z,23.69
2018-09-04T10:30:43.630Z,23.71
2018-09-04T10:31:52.284Z,23.79
2018-09-04T10:33:00.932Z,23.76
2018-09-04T10:34:09.595Z,23.86
2018-09-04T10:35:18.241Z,23.91
2018-09-04T10:36:26.964Z,23.99
2018-09-04T10:37:35.539Z,24
2018-09-04T10:38:44.188Z,23.94
2018-09-04T10:39:53.109Z,24
2018-09-04T10:41:01.758Z,24.01
2018-09-04T10:42:10.502Z,24.16
2018-09-04T10:43:19.065Z,24.13
2018-09-04T10:44:27.743Z,24.21
2018-09-04T10:45:36.375Z,24.25
2018-09-04T10:46:45.302Z,24.24
2018-09-04T10:47:53.944Z,24.24
2018-09-04T10:49:02.600Z,24.32
2018-09-04T10:50:11.512Z,24.4
2018-09-04T10:51:20.165Z,24.47
2018-09-04T10:52:28.810Z,24.43
2018-09-04T10:53:37.470Z,24.47
2018-09-04T10:54:46.652Z,24.55
2018-09-04T10:55:55.308Z,24.48
2018-09-04T10:57:03.958Z,24.53
2018-09-04T10:58:12.609Z,24.55
2018-09-04T10:59:21.258Z,24.61
2018-09-04T11:00:29.910Z,24.63
2018-09-04T11:01:38.567Z,24.68
2018-09-04T11:02:47.214Z,24.68
2018-09-04T11:03:55.868Z,24.68
2018-09-04T11:05:04.781Z,24.77
2018-09-04T11:06:13.437Z,24.78
2018-09-04T11:07:22.081Z,24.93
2018-09-04T11:08:30.736Z,24.93
2018-09-04T11:09:39.507Z,25.01
2018-09-04T11:10:48.052Z,25.11
2018-09-04T11:11:56.701Z,25.06
2018-09-04T11:13:05.358Z,25.15
2018-09-04T11:14:14.006Z,25.11
2018-09-04T11:15:22.656Z,25.09
2018-09-04T11:16:31.584Z,25.11
2018-09-04T11:17:40.231Z,25.25
2018-09-04T11:18:49.155Z,25.19
2018-09-04T11:19:57.797Z,25.29
2018-09-04T11:21:06.457Z,25.3
2018-09-04T11:22:15.372Z,25.3
2018-09-04T11:23:24.030Z,25.36
2018-09-04T11:24:32.673Z,25.46
2018-09-04T11:25:41.333Z,25.44
2018-09-04T11:26:50.241Z,25.49
2018-09-04T11:27:58.897Z,25.54
2018-09-04T11:29:07.810Z,25.62
2018-09-04T11:30:16.465Z,25.55
2018-09-04T11:31:25.124Z,25.52
2018-09-04T11:32:33.781Z,25.61
2018-09-04T11:33:42.438Z,25.68
2018-09-04T11:34:51.357Z,25.76
2018-09-04T11:36:00.283Z,25.76
2018-09-04T11:37:08.934Z,25.78
2018-09-04T11:38:17.603Z,25.91
2018-09-04T11:39:26.246Z,25.81
2018-09-04T11:40:34.972Z,25.96
2018-09-04T11:41:43.552Z,25.98
2018-09-04T11:42:52.212Z,25.95
2018-09-04T11:44:00.854Z,25.92
2018-09-04T11:45:09.510Z,25.96
2018-09-04T11:46:18.162Z,26.03
2018-09-04T11:47:27.086Z,25.96
2018-09-04T11:48:36.000Z,25.95
2018-09-04T11:49:44.644Z,25.96
2018-09-04T11:50:53.294Z,25.81
2018-09-04T11:52:02.263Z,25.76
2018-09-04T11:53:10.880Z,25.68
2018-09-04T11:54:19.533Z,25.74
2018-09-04T11:55:28.453Z,25.68
2018-09-04T11:56:37.101Z,25.67
2018-09-04T11:57:46.029Z,25.74
2018-09-04T11:58:54.677Z,25.78
2018-09-04T12:00:03.601Z,25.88
2018-09-04T12:01:12.242Z,25.86
2018-09-04T12:02:21.170Z,25.93
2018-09-04T12:03:30.088Z,25.96
2018-09-04T12:04:38.742Z,25.95
2018-09-04T12:05:47.472Z,26.11
2018-09-04T12:06:56.292Z,26.08
2018-09-04T12:08:04.923Z,26.11
2018-09-04T12:09:13.553Z,26.24
2018-09-04T12:10:22.183Z,26.19
2018-09-04T12:11:30.813Z,26.24
2018-09-04T12:12:39.563Z,26.13
2018-09-04T12:13:48.581Z,26.16
2018-09-04T12:14:57.473Z,26.19
2018-09-04T12:16:06.107Z,26.27
2018-09-04T12:17:14.997Z,26.15
2018-09-04T12:18:23.628Z,26.29
2018-09-04T12:19:32.518Z,26.22
2018-09-04T12:20:41.248Z,26.23
2018-09-04T12:21:50.231Z,26.34
2018-09-04T12:22:58.861Z,26.24
2018-09-04T12:24:07.493Z,26.33
2018-09-04T12:25:16.122Z,26.34
2018-09-04T12:26:24.751Z,26.34
2018-09-04T12:27:33.381Z,26.34
2018-09-04T12:28:42.012Z,26.37
2018-09-04T12:29:50.648Z,26.37
2018-09-04T12:30:59.282Z,26.46
2018-09-04T12:32:07.913Z,26.42
2018-09-04T12:33:16.543Z,26.46
2018-09-04T12:34:25.175Z,26.53
2018-09-04T12:35:33.803Z,26.56
2018-09-04T12:36:42.442Z,26.6
2018-09-04T12:37:51.069Z,26.67
2018-09-04T12:38:59.698Z,26.59
2018-09-04T12:40:08.328Z,26.68
2018-09-04T12:41:16.958Z,26.6
2018-09-04T12:42:25.596Z,26.63
2018-09-04T12:43:34.219Z,26.63
2018-09-04T12:44:43.108Z,26.55
2018-09-04T12:45:51.737Z,26.6
2018-09-04T12:47:00.366Z,26.61
2018-09-04T12:48:09.012Z,26.66
2018-09-04T12:49:17.631Z,26.68
2018-09-04T12:50:26.262Z,26.63
2018-09-04T12:51:34.893Z,26.68
2018-09-04T12:52:43.782Z,26.67
2018-09-04T12:53:52.411Z,26.82
2018-09-04T12:55:01.043Z,26.88
2018-09-04T12:56:09.671Z,26.74
2018-09-04T12:57:18.304Z,26.86
2018-09-04T12:58:27.198Z,26.78
2018-09-04T12:59:35.853Z,26.82
2018-09-04T13:00:44.462Z,26.73
2018-09-04T13:01:53.091Z,26.78
2018-09-04T13:03:01.724Z,26.79
2018-09-04T13:04:10.353Z,26.81
2018-09-04T13:05:18.984Z,26.96
2018-09-04T13:06:27.612Z,26.93
2018-09-04T13:07:36.242Z,26.98
2018-09-04T13:08:45.185Z,26.97
2018-09-04T13:09:54.083Z,26.91
2018-09-04T13:11:02.977Z,26.89
2018-09-04T13:12:11.608Z,26.91
2018-09-04T13:13:20.239Z,26.93
2018-09-04T13:14:29.163Z,26.85
2018-09-04T13:15:37.789Z,26.86
2018-09-04T13:16:46.689Z,26.86
2018-09-04T13:17:55.324Z,26.82
2018-09-04T13:19:03.952Z,26.89
2018-09-04T13:20:12.845Z,26.83
2018-09-04T13:21:21.480Z,26.67
2018-09-04T13:22:30.112Z,26.82
2018-09-04T13:23:39.274Z,26.81
2018-09-04T13:24:47.901Z,26.74
2018-09-04T13:25:56.528Z,26.82
2018-09-04T13:27:05.158Z,26.82
2018-09-04T13:28:13.790Z,26.76
2018-09-04T13:29:22.425Z,26.83
2018-09-04T13:30:31.052Z,26.83
2018-09-04T13:31:39.684Z,26.89
2018-09-04T13:32:48.315Z,26.93
2018-09-04T13:33:57.205Z,26.93
2018-09-04T13:35:05.833Z,26.98
2018-09-04T13:36:14.466Z,27.04
2018-09-04T13:37:23.095Z,26.91
2018-09-04T13:38:31.725Z,27.01
2018-09-04T13:39:40.356Z,26.96
2018-09-04T13:40:49.517Z,26.96
2018-09-04T13:41:58.148Z,27.01
2018-09-04T13:43:06.778Z,26.92
2018-09-04T13:44:15.412Z,26.85
2018-09-04T13:45:24.045Z,26.82
2018-09-04T13:46:32.675Z,26.86
2018-09-04T13:47:41.568Z,26.7
2018-09-04T13:48:50.203Z,26.83
2018-09-04T13:49:58.835Z,26.74
2018-09-04T13:51:07.730Z,26.73
2018-09-04T13:52:16.369Z,26.7
2018-09-04T13:53:25.000Z,26.88
2018-09-04T13:54:33.893Z,26.76
2018-09-04T13:55:42.787Z,26.78
2018-09-04T13:56:51.416Z,26.76
2018-09-04T13:58:00.046Z,26.81
2018-09-04T13:59:08.675Z,26.83
2018-09-04T14:00:17.307Z,26.81
2018-09-04T14:01:25.943Z,26.86
2018-09-04T14:02:34.835Z,26.81
2018-09-04T14:03:43.466Z,26.71
2018-09-04T14:04:52.098Z,26.74
2018-09-04T14:06:00.730Z,26.7
2018-09-04T14:07:09.360Z,26.73
2018-09-04T14:08:17.990Z,26.73
2018-09-04T14:09:26.621Z,26.7
2018-09-04T14:10:35.517Z,26.73
2018-09-04T14:11:44.152Z,26.74
2018-09-04T14:12:53.043Z,26.86
2018-09-04T14:14:02.196Z,26.85
2018-09-04T14:15:10.752Z,26.83
2018-09-04T14:16:19.653Z,26.92
2018-09-04T14:17:28.542Z,26.97
2018-09-04T14:18:37.174Z,26.96
2018-09-04T14:19:45.801Z,26.93
2018-09-04T14:20:54.508Z,26.97
2018-09-04T14:22:03.063Z,27
2018-09-04T14:23:11.700Z,27.03
2018-09-04T14:24:20.329Z,27.13
2018-09-04T14:25:28.989Z,27.22
2018-09-04T14:26:37.597Z,27.2
2018-09-04T14:27:46.233Z,27.28
2018-09-04T14:29:07.361Z,27.4
2018-09-04T14:30:23.691Z,27.33
2018-09-04T14:31:32.687Z,27.48
2018-09-04T14:32:41.316Z,27.47
2018-09-04T14:33:49.946Z,27.55
2018-09-04T14:34:58.583Z,27.63
2018-09-04T14:36:07.226Z,27.67
2018-09-04T14:37:16.126Z,27.68
2018-09-04T14:38:24.476Z,27.76
2018-09-04T14:39:33.384Z,27.83
2018-09-04T14:40:42.010Z,27.91
2018-09-04T14:41:50.641Z,28
2018-09-04T14:42:59.274Z,28.03
2018-09-04T14:44:08.169Z,28.09
2018-09-04T14:45:16.801Z,28.16
2018-09-04T14:46:25.430Z,28.04
2018-09-04T14:47:34.068Z,28.19
2018-09-04T14:48:42.964Z,28.1